createdAt,value
2023-01-04T00:01:52.426Z,89
2023-01-04T00:05:17.640Z,89
2023-01-04T00:08:42.793Z,89
2023-01-04T00:12:08.014Z,89
2023-01-04T00:15:33.310Z,89
2023-01-04T00:18:58.427Z,89
2023-01-04T00:22:23.591Z,89
2023-01-04T00:25:48.808Z,89
2023-01-04T00:29:14.099Z,89
2023-01-04T00:32:39.311Z,89
2023-01-04T00:36:04.521Z,90
2023-01-04T00:39:29.758Z,90
2023-01-04T00:42:54.955Z,90
2023-01-04T00:46:20.258Z,90
2023-01-04T00:49:45.411Z,89
2023-01-04T00:53:10.613Z,89
2023-01-04T00:56:35.875Z,88
2023-01-04T01:00:01.072Z,89
2023-01-04T01:03:26.608Z,88
2023-01-04T01:06:51.549Z,89
2023-01-04T01:10:16.778Z,88
2023-01-04T01:13:41.980Z,88
2023-01-04T01:17:07.338Z,88
2023-01-04T01:20:32.453Z,89
2023-01-04T01:23:57.631Z,89
2023-01-04T01:27:22.853Z,89
2023-01-04T01:30:48.087Z,89
2023-01-04T01:34:13.294Z,88
2023-01-04T01:37:38.556Z,88
2023-01-04T01:41:03.717Z,89
2023-01-04T01:44:28.950Z,88
2023-01-04T01:47:54.155Z,88
2023-01-04T01:51:19.355Z,88
2023-01-04T01:54:44.579Z,88
2023-01-04T01:58:09.777Z,88
2023-01-04T02:01:35.062Z,87
2023-01-04T02:05:00.202Z,88
2023-01-04T02:08:25.408Z,88
2023-01-04T02:11:50.670Z,88
2023-01-04T02:15:15.830Z,88
2023-01-04T02:18:41.063Z,88
2023-01-04T02:22:06.239Z,88
2023-01-04T02:25:31.468Z,88
2023-01-04T02:28:56.665Z,88
2023-01-04T02:32:21.805Z,88
2023-01-04T02:35:46.998Z,88
2023-01-04T02:39:12.210Z,88
2023-01-04T02:42:37.383Z,88
2023-01-04T02:46:02.590Z,89
2023-01-04T02:49:27.738Z,89
2023-01-04T02:52:52.907Z,89
2023-01-04T02:56:18.151Z,89
2023-01-04T02:59:43.323Z,90
2023-01-04T03:03:08.666Z,90
2023-01-04T03:06:33.772Z,90
2023-01-04T03:09:58.969Z,89
2023-01-04T03:13:24.174Z,90
2023-01-04T03:16:49.403Z,90
2023-01-04T03:20:14.659Z,91
2023-01-04T03:23:39.808Z,91
2023-01-04T03:27:05.029Z,91
2023-01-04T03:30:30.195Z,91
2023-01-04T03:33:55.407Z,91
2023-01-04T03:37:20.732Z,91
2023-01-04T03:40:45.793Z,90
2023-01-04T03:44:10.959Z,90
2023-01-04T03:47:36.120Z,90
2023-01-04T03:51:01.315Z,90
2023-01-04T03:54:26.539Z,90
2023-01-04T03:57:51.713Z,90
2023-01-04T04:01:17.091Z,90
2023-01-04T04:04:42.104Z,90
2023-01-04T04:08:07.268Z,90
2023-01-04T04:11:32.512Z,90
2023-01-04T04:14:57.683Z,90
2023-01-04T04:18:22.924Z,91
2023-01-04T04:21:48.090Z,91
2023-01-04T04:25:13.282Z,91
2023-01-04T04:28:38.487Z,91
2023-01-04T04:32:03.691Z,91
2023-01-04T04:35:28.997Z,91
2023-01-04T04:38:54.166Z,91
2023-01-04T04:42:19.439Z,91
2023-01-04T04:45:44.748Z,91
2023-01-04T04:49:09.913Z,91
2023-01-04T04:52:35.133Z,90
2023-01-04T04:56:00.386Z,90
2023-01-04T04:59:25.827Z,89
2023-01-04T05:02:51.184Z,89
2023-01-04T05:06:16.296Z,89
2023-01-04T05:09:41.529Z,89
2023-01-04T05:13:06.704Z,89
2023-01-04T05:16:31.938Z,89
2023-01-04T05:19:57.124Z,89
2023-01-04T05:23:22.359Z,90
2023-01-04T05:26:47.547Z,90
2023-01-04T05:30:12.753Z,90
2023-01-04T05:33:37.976Z,90
2023-01-04T05:37:03.244Z,90
2023-01-04T05:40:28.485Z,91
2023-01-04T05:43:53.708Z,91
2023-01-04T05:47:18.944Z,91
2023-01-04T05:50:44.162Z,91
2023-01-04T05:54:09.404Z,90
2023-01-04T05:57:34.647Z,90
2023-01-04T06:00:59.956Z,91
2023-01-04T06:04:25.230Z,89
2023-01-04T06:07:50.433Z,88
2023-01-04T06:11:15.791Z,88
2023-01-04T06:14:40.878Z,89
2023-01-04T06:18:09.995Z,89
2023-01-04T06:21:31.320Z,89
2023-01-04T06:24:56.505Z,90
2023-01-04T06:28:22.295Z,89
2023-01-04T06:31:47.515Z,89
2023-01-04T06:35:12.788Z,89
2023-01-04T06:38:38.143Z,89
2023-01-04T06:42:06.484Z,89
2023-01-04T06:45:28.703Z,89
2023-01-04T06:48:53.939Z,89
2023-01-04T06:52:19.263Z,89
2023-01-04T06:55:44.550Z,89
2023-01-04T06:59:09.858Z,89
2023-01-04T07:02:35.266Z,89
2023-01-04T07:06:00.363Z,89
2023-01-04T07:09:25.595Z,89
2023-01-04T07:12:50.837Z,89
2023-01-04T07:16:16.106Z,90
2023-01-04T07:19:41.819Z,89
2023-01-04T07:23:06.786Z,90
2023-01-04T07:26:32.012Z,89
2023-01-04T07:29:57.312Z,89
2023-01-04T07:33:22.618Z,90
2023-01-04T07:36:47.947Z,90
2023-01-04T07:40:13.184Z,91
2023-01-04T07:43:38.489Z,91
2023-01-04T07:47:03.766Z,92
2023-01-04T07:50:29.148Z,92
2023-01-04T07:53:54.294Z,92
2023-01-04T07:57:19.576Z,92
2023-01-04T08:00:44.891Z,93
2023-01-04T08:04:10.194Z,93
2023-01-04T08:07:35.459Z,93
2023-01-04T08:11:00.801Z,93
2023-01-04T08:14:26.096Z,94
2023-01-04T08:17:51.339Z,94
2023-01-04T08:21:16.613Z,94
2023-01-04T08:24:41.903Z,94
2023-01-04T08:28:07.198Z,94
2023-01-04T08:31:32.569Z,94
2023-01-04T08:34:57.713Z,94
2023-01-04T08:38:57.887Z,94
2023-01-04T08:41:57.744Z,95
2023-01-04T08:45:13.598Z,95
2023-01-04T08:48:38.753Z,95
2023-01-04T08:52:04.069Z,95
2023-01-04T08:55:29.298Z,95
2023-01-04T08:58:54.514Z,95
2023-01-04T09:02:19.947Z,95
2023-01-04T09:05:44.944Z,96
2023-01-04T09:09:10.185Z,96
2023-01-04T09:12:35.381Z,95
2023-01-04T09:16:00.647Z,95
2023-01-04T09:19:25.860Z,95
2023-01-04T09:22:51.055Z,95
2023-01-04T09:26:16.276Z,95
2023-01-04T09:29:41.553Z,95
2023-01-04T09:33:06.721Z,95
2023-01-04T09:36:31.957Z,95
2023-01-04T09:39:57.144Z,94
2023-01-04T09:43:22.492Z,94
2023-01-04T09:46:47.636Z,94
2023-01-04T09:50:12.867Z,94
2023-01-04T09:53:38.125Z,94
2023-01-04T09:57:03.341Z,94
2023-01-04T10:00:28.647Z,94
2023-01-04T10:03:53.873Z,94
2023-01-04T10:07:19.020Z,94
2023-01-04T10:10:44.264Z,94
2023-01-04T10:14:09.487Z,94
2023-01-04T10:18:13.983Z,93
2023-01-04T10:21:23.509Z,93
2023-01-04T10:24:25.167Z,93
2023-01-04T10:27:50.405Z,93
2023-01-04T10:31:39.263Z,93
2023-01-04T10:34:40.833Z,94
2023-01-04T10:38:06.081Z,94
2023-01-04T10:41:31.376Z,93
2023-01-04T10:44:56.653Z,93
2023-01-04T10:48:21.878Z,93
2023-01-04T10:51:47.148Z,93
2023-01-04T10:55:12.396Z,93
2023-01-04T10:58:37.740Z,93
2023-01-04T11:02:03.163Z,93
2023-01-04T11:05:28.224Z,94
2023-01-04T11:08:53.464Z,95
2023-01-04T11:12:18.687Z,95
2023-01-04T11:15:44.303Z,95
2023-01-04T11:19:09.626Z,95
2023-01-04T11:22:34.899Z,95
2023-01-04T11:26:00.217Z,95
2023-01-04T11:29:25.501Z,96
2023-01-04T11:32:50.843Z,95
2023-01-04T11:36:16.446Z,96
2023-01-04T11:39:41.689Z,96
2023-01-04T11:43:06.971Z,96
2023-01-04T11:46:32.384Z,96
2023-01-04T11:49:57.532Z,96
2023-01-04T11:53:22.815Z,96
2023-01-04T11:56:48.046Z,96
2023-01-04T12:00:13.294Z,96
2023-01-04T12:03:38.583Z,95
2023-01-04T12:07:03.852Z,95
2023-01-04T12:10:29.113Z,95
2023-01-04T12:13:54.355Z,96
2023-01-04T12:17:19.650Z,96
2023-01-04T12:20:44.931Z,96
2023-01-04T12:24:10.186Z,97
2023-01-04T12:27:35.485Z,96
2023-01-04T12:31:00.746Z,96
2023-01-04T12:34:26.082Z,96
2023-01-04T12:37:51.295Z,96
2023-01-04T12:41:16.540Z,97
2023-01-04T12:44:41.822Z,97
2023-01-04T12:48:07.087Z,97
2023-01-04T12:51:33.523Z,97
2023-01-04T12:54:57.624Z,97
2023-01-04T12:58:34.335Z,97
2023-01-04T13:01:48.307Z,97
2023-01-04T13:08:38.738Z,97
2023-01-04T13:12:04.001Z,97
2023-01-04T13:15:29.244Z,97
2023-01-04T13:18:54.618Z,97
2023-01-04T13:22:23.521Z,97
2023-01-04T13:25:45.155Z,96
2023-01-04T13:29:10.379Z,97
2023-01-04T13:32:47.196Z,96
2023-01-04T13:36:00.907Z,96
2023-01-04T13:39:26.186Z,96
2023-01-04T13:42:51.784Z,96
2023-01-04T13:46:17.128Z,96
2023-01-04T13:49:42.373Z,96
2023-01-04T13:53:08.945Z,96
2023-01-04T13:56:57.826Z,95
2023-01-04T14:00:23.112Z,95
2023-01-04T14:03:48.425Z,96
2023-01-04T14:07:13.744Z,96
2023-01-04T14:10:39.034Z,97
2023-01-04T14:14:04.271Z,96
2023-01-04T14:17:29.548Z,96
2023-01-04T14:20:54.870Z,96
2023-01-04T14:24:34.513Z,96
2023-01-04T14:27:45.485Z,96
2023-01-04T15:05:04.057Z,96
2023-01-04T15:08:29.275Z,96
2023-01-04T15:11:54.578Z,96
2023-01-04T15:15:19.899Z,97
2023-01-04T15:18:45.217Z,96
2023-01-04T15:22:10.489Z,96
2023-01-04T15:25:35.762Z,96
2023-01-04T15:29:01.054Z,96
2023-01-04T15:32:26.322Z,96
2023-01-04T15:35:51.663Z,96
2023-01-04T15:39:16.986Z,96
2023-01-04T15:42:42.240Z,96
2023-01-04T15:46:07.773Z,96
2023-01-04T15:49:32.847Z,96
2023-01-04T15:52:58.106Z,96
2023-01-04T15:56:23.369Z,96
2023-01-04T15:59:48.656Z,96
2023-01-04T16:03:14.174Z,97
2023-01-04T16:06:39.439Z,97
2023-01-04T16:10:04.834Z,96
2023-01-04T16:13:30.266Z,97
2023-01-04T16:16:55.524Z,97
2023-01-04T16:20:20.822Z,97
2023-01-04T16:23:46.075Z,97
2023-01-04T16:27:11.345Z,97
2023-01-04T16:30:36.696Z,97
2023-01-04T16:34:01.890Z,97
2023-01-04T16:37:27.184Z,98
2023-01-04T16:40:52.515Z,96
2023-01-04T16:44:17.790Z,96
2023-01-04T16:47:43.121Z,96
2023-01-04T16:51:08.388Z,97
2023-01-04T16:54:33.689Z,95
2023-01-04T16:57:58.995Z,96
2023-01-04T17:01:24.352Z,96
2023-01-04T17:04:49.577Z,96
2023-01-04T17:08:14.840Z,96
2023-01-04T17:15:41.113Z,97
2023-01-04T17:18:30.691Z,97
2023-01-04T17:21:55.990Z,97
2023-01-04T17:25:21.278Z,97
2023-01-04T17:28:46.651Z,97
2023-01-04T17:32:12.641Z,97
2023-01-04T17:35:37.869Z,97
2023-01-04T17:39:03.147Z,97
2023-01-04T17:42:28.347Z,97
2023-01-04T17:45:53.682Z,97
2023-01-04T17:49:25.440Z,97
2023-01-04T17:52:45.648Z,97
2023-01-04T17:59:37.644Z,97
2023-01-04T18:03:03.980Z,97
2023-01-04T18:06:29.580Z,97
2023-01-04T18:09:55.145Z,97
2023-01-04T18:13:20.842Z,97
2023-01-04T18:16:48.721Z,97
2023-01-04T18:20:19.704Z,97
2023-01-04T18:23:40.358Z,97
2023-01-04T18:27:22.964Z,97
2023-01-04T18:30:31.944Z,97
2023-01-04T18:33:58.024Z,97
2023-01-04T18:37:23.782Z,97
2023-01-04T18:40:50.636Z,97
2023-01-04T18:45:06.956Z,97
2023-01-04T18:48:33.480Z,97
2023-01-04T18:52:00.109Z,97
2023-01-04T18:55:27.462Z,97
2023-01-04T18:58:53.991Z,97
2023-01-04T19:02:20.926Z,97
2023-01-04T19:05:47.008Z,97
2023-01-04T19:09:13.579Z,97
2023-01-04T19:12:39.857Z,97
2023-01-04T19:16:05.688Z,97
2023-01-04T19:19:30.989Z,97
2023-01-04T19:22:56.289Z,97
2023-01-04T19:26:21.547Z,97
2023-01-04T19:29:46.809Z,97
2023-01-04T19:33:12.227Z,97
2023-01-04T19:36:37.510Z,97
2023-01-04T19:40:02.868Z,97
2023-01-04T19:43:28.166Z,97
2023-01-04T19:46:53.512Z,97
2023-01-04T19:50:18.796Z,97
2023-01-04T19:53:45.066Z,97
2023-01-04T19:57:10.464Z,97
2023-01-04T20:00:35.940Z,98
2023-01-04T20:04:55.276Z,98
2023-01-04T20:08:20.555Z,98
2023-01-04T20:11:45.846Z,97
2023-01-04T20:15:11.173Z,98
2023-01-04T20:18:36.455Z,97
2023-01-04T20:22:01.856Z,98
2023-01-04T20:25:27.205Z,98
2023-01-04T20:28:52.547Z,98
2023-01-04T20:32:17.948Z,98
2023-01-04T20:35:43.217Z,98
2023-01-04T20:39:08.729Z,98
2023-01-04T20:42:34.092Z,98
2023-01-04T20:45:59.549Z,98
2023-01-04T20:49:24.868Z,97
2023-01-04T20:52:50.353Z,97
2023-01-04T20:56:15.761Z,97
2023-01-04T20:59:41.848Z,97
2023-01-04T21:03:07.449Z,97
2023-01-04T21:06:32.617Z,97
2023-01-04T21:09:57.943Z,97
2023-01-04T21:13:23.261Z,97
2023-01-04T21:16:48.634Z,97
2023-01-04T21:20:13.945Z,97
2023-01-04T21:23:39.338Z,97
2023-01-04T21:27:04.631Z,97
2023-01-04T21:30:29.966Z,97
2023-01-04T21:33:55.321Z,97
2023-01-04T21:37:20.628Z,97
2023-01-04T21:40:45.956Z,97
2023-01-04T21:44:11.229Z,97
2023-01-04T21:47:36.511Z,97
2023-01-04T21:51:01.845Z,97
2023-01-04T21:54:27.146Z,97
2023-01-04T21:57:53.288Z,97
2023-01-04T22:01:18.715Z,97
2023-01-04T22:04:43.928Z,97
2023-01-04T22:08:09.279Z,97
2023-01-04T22:11:34.526Z,97
2023-01-04T22:14:59.852Z,97
2023-01-04T22:18:25.115Z,97
2023-01-04T22:21:50.479Z,96
2023-01-04T22:25:15.788Z,97
2023-01-04T22:28:41.139Z,97
2023-01-04T22:32:06.479Z,97
2023-01-04T22:35:31.773Z,97
2023-01-04T22:38:57.125Z,96
2023-01-04T22:42:22.514Z,96
2023-01-04T22:45:47.917Z,96
2023-01-04T22:49:13.256Z,96
2023-01-04T22:52:38.609Z,96
2023-01-04T22:56:21.221Z,96
2023-01-04T22:59:29.370Z,95
2023-01-04T23:02:54.782Z,95
2023-01-04T23:06:20.038Z,95
2023-01-04T23:09:45.313Z,95
2023-01-04T23:13:10.754Z,94
2023-01-04T23:16:36.074Z,94
2023-01-04T23:20:01.391Z,94
2023-01-04T23:23:26.653Z,93
2023-01-04T23:26:51.928Z,93
2023-01-04T23:30:17.242Z,94
2023-01-04T23:33:42.582Z,94
2023-01-04T23:37:07.922Z,94
2023-01-04T23:40:33.248Z,94
2023-01-04T23:43:58.618Z,93
2023-01-04T23:47:22.489Z,92
2023-01-04T23:50:47.774Z,91
2023-01-04T23:54:13.225Z,92
2023-01-04T23:57:38.533Z,92
